createdAt,value
2022-08-07T00:00:15.440Z,100646.97
2022-08-07T00:02:45.786Z,100643.66
2022-08-07T00:05:12.869Z,100648.81
2022-08-07T00:07:40.919Z,100655.06
2022-08-07T00:10:26.580Z,100648.06
2022-08-07T00:13:00.320Z,100647.25
2022-08-07T00:15:37.967Z,100648.38
2022-08-07T00:18:19.378Z,100656.22
2022-08-07T00:20:49.528Z,100647.81
2022-08-07T00:23:16.967Z,100649.19
2022-08-07T00:25:45.764Z,100657.16
2022-08-07T00:28:22.012Z,100639.50
2022-08-07T00:30:49.021Z,100643.16
2022-08-07T00:33:15.894Z,100639.66
2022-08-07T00:35:46.492Z,100651.34
2022-08-07T00:38:16.637Z,100649.28
2022-08-07T00:40:59.075Z,100653.41
2022-08-07T00:43:58.970Z,100658.63
2022-08-07T00:46:14.443Z,100660.56
2022-08-07T00:48:42.244Z,100658.09
2022-08-07T00:51:10.249Z,100668.78
2022-08-07T00:53:38.970Z,100666.84
2022-08-07T00:56:17.547Z,100659.75
2022-08-07T00:58:47.176Z,100666.06
2022-08-07T01:01:17.011Z,100666.00
2022-08-07T01:03:57.201Z,100670.56
2022-08-07T01:06:27.737Z,100674.22
2022-08-07T01:08:56.263Z,100684.28
2022-08-07T01:12:10.184Z,100695.34
2022-08-07T01:14:15.544Z,100684.94
2022-08-07T01:16:47.239Z,100687.19
2022-08-07T01:19:19.197Z,100684.94
2022-08-07T01:21:48.398Z,100690.84
2022-08-07T01:24:18.701Z,100680.13
2022-08-07T01:26:52.227Z,100682.38
2022-08-07T01:29:22.606Z,100679.53
2022-08-07T01:31:51.826Z,100690.94
2022-08-07T01:34:19.653Z,100679.59
2022-08-07T01:36:52.760Z,100685.16
2022-08-07T01:39:41.101Z,100688.41
2022-08-07T01:42:40.074Z,100688.78
2022-08-07T01:45:05.350Z,100691.91
2022-08-07T01:48:29.296Z,100691.88
2022-08-07T01:50:28.937Z,100697.91
2022-08-07T01:52:58.380Z,100689.06
2022-08-07T01:55:50.808Z,100699.97
2022-08-07T01:58:29.654Z,100695.72
2022-08-07T02:01:10.360Z,100697.28
2022-08-07T02:04:01.846Z,100688.91
2022-08-07T02:06:33.436Z,100692.81
2022-08-07T02:09:04.655Z,100691.03
2022-08-07T02:12:02.877Z,100689.22
2022-08-07T02:14:40.395Z,100677.87
2022-08-07T02:17:11.238Z,100685.91
2022-08-07T02:20:06.941Z,100693.28
2022-08-07T02:22:30.448Z,100689.94
2022-08-07T02:24:58.114Z,100684.22
2022-08-07T02:27:27.575Z,100687.13
2022-08-07T02:30:03.897Z,100686.53
2022-08-07T02:32:38.689Z,100679.03
2022-08-07T02:36:27.081Z,100682.38
2022-08-07T02:38:16.255Z,100676.50
2022-08-07T02:40:46.596Z,100686.34
2022-08-07T02:43:16.245Z,100680.34
2022-08-07T02:46:00.434Z,100683.66
2022-08-07T02:48:28.713Z,100680.66
2022-08-07T02:50:57.387Z,100680.66
2022-08-07T02:53:34.096Z,100678.31
2022-08-07T02:56:12.897Z,100665.41
2022-08-07T02:58:49.754Z,100668.16
2022-08-07T03:01:36.701Z,100657.63
2022-08-07T03:04:12.824Z,100654.72
2022-08-07T03:06:45.794Z,100667.47
2022-08-07T03:09:14.014Z,100661.53
2022-08-07T03:11:52.515Z,100657.59
2022-08-07T03:14:25.484Z,100670.47
2022-08-07T03:16:52.630Z,100657.44
2022-08-07T03:19:20.456Z,100662.97
2022-08-07T03:21:50.916Z,100663.59
2022-08-07T03:24:27.214Z,100671.03
2022-08-07T03:26:59.602Z,100677.94
2022-08-07T03:29:33.726Z,100670.22
2022-08-07T03:32:08.440Z,100676.66
2022-08-07T03:34:47.369Z,100675.78
2022-08-07T03:37:37.427Z,100678.94
2022-08-07T03:40:15.950Z,100685.56
2022-08-07T03:42:44.217Z,100680.56
2022-08-07T03:45:12.125Z,100684.41
2022-08-07T03:47:57.944Z,100685.06
2022-08-07T03:50:25.533Z,100679.34
2022-08-07T03:52:58.734Z,100686.31
2022-08-07T03:55:57.342Z,100685.13
2022-08-07T03:59:05.487Z,100684.03
2022-08-07T04:01:02.057Z,100685.13
2022-08-07T04:03:29.263Z,100683.06
2022-08-07T04:06:37.296Z,100687.72
2022-08-07T04:09:03.765Z,100682.25
2022-08-07T04:12:23.692Z,100687.53
2022-08-07T04:14:37.814Z,100694.56
2022-08-07T04:17:20.455Z,100702.94
2022-08-07T04:19:51.161Z,100713.31
2022-08-07T04:22:19.975Z,100711.97
2022-08-07T04:24:50.654Z,100712.13
2022-08-07T04:27:25.163Z,100716.66
2022-08-07T04:30:01.075Z,100711.16
2022-08-07T04:32:34.717Z,100718.44
2022-08-07T04:35:11.216Z,100720.56
2022-08-07T04:37:52.783Z,100721.56
2022-08-07T04:40:29.543Z,100733.84
2022-08-07T04:43:01.650Z,100719.97
2022-08-07T04:46:00.945Z,100720.62
2022-08-07T04:48:28.553Z,100729.75
2022-08-07T04:51:04.514Z,100726.25
2022-08-07T04:54:05.759Z,100727.75
2022-08-07T04:58:11.333Z,100734.34
2022-08-07T05:00:10.858Z,100733.22
2022-08-07T05:03:17.218Z,100727.75
2022-08-07T05:06:19.355Z,100728.31
2022-08-07T05:09:15.906Z,100730.00
2022-08-07T05:11:56.914Z,100725.91
2022-08-07T05:14:52.508Z,100735.56
2022-08-07T05:17:52.232Z,100739.03
2022-08-07T05:20:27.043Z,100738.25
2022-08-07T05:22:59.865Z,100739.66
2022-08-07T05:26:08.854Z,100742.78
2022-08-07T05:28:22.854Z,100743.78
2022-08-07T05:30:52.638Z,100740.72
2022-08-07T05:33:21.456Z,100737.91
2022-08-07T05:35:51.611Z,100749.50
2022-08-07T05:38:59.955Z,100747.88
2022-08-07T05:41:14.309Z,100748.25
2022-08-07T05:44:01.255Z,100748.84
2022-08-07T05:46:36.727Z,100753.13
2022-08-07T05:49:11.781Z,100767.75
2022-08-07T05:51:40.601Z,100757.47
2022-08-07T05:54:12.473Z,100768.22
2022-08-07T05:56:56.275Z,100755.87
2022-08-07T05:59:25.392Z,100755.44
2022-08-07T06:01:57.469Z,100761.38
2022-08-07T06:04:29.883Z,100750.50
2022-08-07T06:07:03.793Z,100758.81
2022-08-07T06:10:01.847Z,100756.09
2022-08-07T06:12:21.148Z,100749.50
2022-08-07T06:14:58.789Z,100757.25
2022-08-07T06:17:37.525Z,100750.78
2022-08-07T06:20:06.672Z,100747.97
2022-08-07T06:22:50.652Z,100747.41
2022-08-07T06:25:34.837Z,100754.81
2022-08-07T06:28:06.010Z,100755.03
2022-08-07T06:30:37.305Z,100763.50
2022-08-07T06:33:15.731Z,100759.63
2022-08-07T06:35:47.809Z,100750.44
2022-08-07T06:38:30.479Z,100745.50
2022-08-07T06:41:00.729Z,100746.44
2022-08-07T06:43:39.244Z,100744.41
2022-08-07T06:46:11.594Z,100749.31
2022-08-07T06:48:42.166Z,100747.34
2022-08-07T06:51:31.152Z,100747.25
2022-08-07T06:55:27.735Z,100746.50
2022-08-07T06:56:51.866Z,100738.72
2022-08-07T07:00:12.198Z,100736.53
2022-08-07T07:02:49.115Z,100743.78
2022-08-07T07:05:15.105Z,100737.44
2022-08-07T07:08:06.983Z,100737.44
2022-08-07T07:10:36.655Z,100740.50
2022-08-07T07:13:40.565Z,100744.66
2022-08-07T07:16:09.985Z,100737.19
2022-08-07T07:18:49.093Z,100736.34
2022-08-07T07:21:20.597Z,100734.59
2022-08-07T07:24:08.316Z,100733.34
2022-08-07T07:26:37.893Z,100736.50
2022-08-07T07:29:39.780Z,100744.38
2022-08-07T07:32:09.534Z,100737.16
2022-08-07T07:34:41.103Z,100739.88
2022-08-07T07:37:22.081Z,100742.25
2022-08-07T07:40:01.972Z,100740.00
2022-08-07T07:42:33.293Z,100734.34
2022-08-07T07:45:02.831Z,100736.56
2022-08-07T07:47:30.524Z,100732.97
2022-08-07T07:50:36.105Z,100741.97
2022-08-07T07:53:13.702Z,100736.31
2022-08-07T07:56:00.863Z,100734.25
2022-08-07T07:58:40.644Z,100737.16
2022-08-07T08:02:03.206Z,100731.22
2022-08-07T08:04:10.640Z,100737.50
2022-08-07T08:06:50.761Z,100730.25
2022-08-07T08:09:22.743Z,100738.03
2022-08-07T08:12:02.733Z,100734.28
2022-08-07T08:14:36.386Z,100725.16
2022-08-07T08:17:56.211Z,100724.75
2022-08-07T08:20:17.570Z,100731.41
2022-08-07T08:23:08.198Z,100724.91
2022-08-07T08:25:56.217Z,100721.66
2022-08-07T08:28:38.232Z,100710.47
2022-08-07T08:31:16.451Z,100716.31
2022-08-07T08:33:55.785Z,100716.22
2022-08-07T08:36:29.706Z,100707.78
2022-08-07T08:39:01.664Z,100710.72
2022-08-07T08:41:57.147Z,100709.72
2022-08-07T08:44:36.305Z,100717.28
2022-08-07T08:47:29.012Z,100717.25
2022-08-07T08:50:10.882Z,100719.47
2022-08-07T08:53:03.714Z,100713.50
2022-08-07T08:55:58.810Z,100719.84
2022-08-07T08:58:54.620Z,100712.63
2022-08-07T09:01:40.180Z,100714.09
2022-08-07T09:04:13.923Z,100709.62
2022-08-07T09:07:06.326Z,100705.69
2022-08-07T09:09:47.480Z,100705.91
2022-08-07T09:12:38.574Z,100702.34
2022-08-07T09:16:20.494Z,100701.41
2022-08-07T09:18:15.705Z,100693.06
2022-08-07T09:21:00.787Z,100687.16
2022-08-07T09:24:35.123Z,100679.16
2022-08-07T09:27:16.395Z,100688.94
2022-08-07T09:30:03.416Z,100685.19
2022-08-07T09:32:37.463Z,100682.72
2022-08-07T09:36:03.506Z,100681.84
2022-08-07T09:38:37.015Z,100684.00
2022-08-07T09:42:03.185Z,100686.47
2022-08-07T09:46:28.773Z,100681.81
2022-08-07T09:48:02.957Z,100668.44
2022-08-07T09:50:54.685Z,100672.19
2022-08-07T09:53:24.775Z,100670.75
2022-08-07T09:56:39.297Z,100667.37
2022-08-07T09:59:14.959Z,100668.19
2022-08-07T10:02:08.887Z,100659.97
2022-08-07T10:04:46.058Z,100656.16
2022-08-07T10:07:53.321Z,100644.37
2022-08-07T10:11:07.778Z,100655.31
2022-08-07T10:14:01.377Z,100651.81
2022-08-07T10:16:34.526Z,100640.34
2022-08-07T10:19:14.029Z,100639.41
2022-08-07T10:22:12.482Z,100645.03
2022-08-07T10:24:59.596Z,100641.47
2022-08-07T10:28:14.286Z,100639.69
2022-08-07T10:31:18.674Z,100630.06
2022-08-07T10:34:32.007Z,100628.56
2022-08-07T10:37:22.300Z,100627.06
2022-08-07T10:40:39.087Z,100628.59
2022-08-07T10:43:29.835Z,100623.97
2022-08-07T10:46:09.556Z,100631.88
2022-08-07T10:49:10.322Z,100619.41
2022-08-07T10:52:13.625Z,100618.62
2022-08-07T10:55:00.945Z,100612.12
2022-08-07T10:57:56.018Z,100615.81
2022-08-07T11:00:39.751Z,100609.09
2022-08-07T11:03:37.184Z,100610.13
2022-08-07T11:06:26.949Z,100615.81
2022-08-07T11:09:11.498Z,100607.28
2022-08-07T11:11:59.359Z,100610.63
2022-08-07T11:14:45.852Z,100611.00
2022-08-07T11:17:43.274Z,100609.19
2022-08-07T11:20:24.359Z,100606.78
2022-08-07T11:23:09.302Z,100606.31
2022-08-07T11:25:50.049Z,100603.84
2022-08-07T11:28:37.057Z,100610.09
2022-08-07T11:31:34.954Z,100599.56
2022-08-07T11:34:16.491Z,100593.69
2022-08-07T11:37:11.648Z,100592.00
2022-08-07T11:40:03.750Z,100599.13
2022-08-07T11:42:54.614Z,100591.28
2022-08-07T11:45:23.703Z,100584.44
2022-08-07T11:48:05.992Z,100589.84
2022-08-07T11:51:00.234Z,100580.97
2022-08-07T11:54:01.587Z,100570.03
2022-08-07T11:56:56.234Z,100570.97
2022-08-07T12:00:10.213Z,100562.06
2022-08-07T12:03:42.252Z,100553.88
2022-08-07T12:06:40.328Z,100552.91
2022-08-07T12:09:37.997Z,100556.19
2022-08-07T12:12:09.306Z,100548.75
2022-08-07T12:15:03.453Z,100549.59
2022-08-07T12:17:40.575Z,100539.63
2022-08-07T12:20:49.354Z,100541.59
2022-08-07T12:24:06.249Z,100545.50
2022-08-07T12:26:29.792Z,100541.94
2022-08-07T12:29:03.734Z,100536.31
2022-08-07T12:32:01.574Z,100530.31
2022-08-07T12:34:31.423Z,100530.50
2022-08-07T12:36:59.913Z,100536.00
2022-08-07T12:39:44.087Z,100537.44
2022-08-07T12:42:27.897Z,100534.84
2022-08-07T12:44:58.905Z,100525.69
2022-08-07T12:47:39.822Z,100519.09
2022-08-07T12:50:38.061Z,100511.59
2022-08-07T12:53:28.674Z,100509.28
2022-08-07T12:56:40.311Z,100514.13
2022-08-07T12:59:08.698Z,100514.41
2022-08-07T13:02:33.253Z,100516.31
2022-08-07T13:06:04.477Z,100508.72
2022-08-07T13:08:29.573Z,100511.34
2022-08-07T13:11:16.406Z,100505.59
2022-08-07T13:13:57.295Z,100496.97
2022-08-07T13:16:27.245Z,100500.19
2022-08-07T13:19:35.258Z,100495.59
2022-08-07T13:22:32.296Z,100499.19
2022-08-07T13:25:24.243Z,100492.25
2022-08-07T13:28:11.141Z,100509.97
2022-08-07T13:30:48.958Z,100497.34
2022-08-07T13:34:30.927Z,100486.19
2022-08-07T13:36:50.106Z,100487.97
2022-08-07T13:40:32.779Z,100492.03
2022-08-07T13:42:24.980Z,100480.41
2022-08-07T13:44:57.650Z,100470.75
2022-08-07T13:48:06.345Z,100480.19
2022-08-07T13:50:34.722Z,100480.13
2022-08-07T13:53:05.437Z,100462.22
2022-08-07T13:55:34.129Z,100468.03
2022-08-07T13:58:56.427Z,100467.03
2022-08-07T14:01:26.503Z,100461.06
2022-08-07T14:04:05.421Z,100470.13
2022-08-07T14:06:40.715Z,100466.72
2022-08-07T14:09:17.275Z,100455.72
2022-08-07T14:12:10.298Z,100455.50
2022-08-07T14:14:43.984Z,100455.22
2022-08-07T14:18:12.370Z,100458.53
2022-08-07T14:20:42.482Z,100453.09
2022-08-07T14:23:14.794Z,100450.25
2022-08-07T14:26:05.664Z,100443.25
2022-08-07T14:28:55.666Z,100442.97
2022-08-07T14:31:43.431Z,100447.44
2022-08-07T14:34:19.950Z,100440.97
2022-08-07T14:36:56.072Z,100447.41
2022-08-07T14:40:16.977Z,100446.06
2022-08-07T14:42:18.466Z,100435.94
2022-08-07T14:44:59.711Z,100438.50
2022-08-07T14:47:33.832Z,100444.22
2022-08-07T14:50:07.148Z,100430.13
2022-08-07T14:52:39.465Z,100440.09
2022-08-07T14:55:12.424Z,100443.69
2022-08-07T14:57:57.934Z,100432.16
2022-08-07T15:00:31.271Z,100423.22
2022-08-07T15:03:19.089Z,100428.78
2022-08-07T15:05:54.729Z,100425.06
2022-08-07T15:11:52.844Z,100424.69
2022-08-07T15:14:30.591Z,100423.53
2022-08-07T15:17:04.875Z,100419.31
2022-08-07T15:22:33.488Z,100411.94
2022-08-07T15:25:18.260Z,100418.09
2022-08-07T15:31:04.992Z,100410.50
2022-08-07T15:33:33.452Z,100418.62
2022-08-07T15:36:05.248Z,100417.69
2022-08-07T15:38:58.729Z,100409.16
2022-08-07T15:42:46.849Z,100412.06
2022-08-07T15:44:20.936Z,100410.25
2022-08-07T15:46:58.916Z,100403.47
2022-08-07T15:52:30.525Z,100413.25
2022-08-07T15:55:02.732Z,100410.91
2022-08-07T15:57:40.270Z,100409.87
2022-08-07T16:00:31.296Z,100400.75
2022-08-07T16:03:21.887Z,100406.00
2022-08-07T16:06:05.896Z,100405.22
2022-08-07T16:08:38.225Z,100410.78
2022-08-07T16:11:26.915Z,100400.47
2022-08-07T16:14:06.375Z,100401.78
2022-08-07T16:16:57.287Z,100398.19
2022-08-07T16:19:58.647Z,100398.94
2022-08-07T16:22:56.631Z,100402.78
2022-08-07T16:26:01.474Z,100404.84
2022-08-07T16:30:07.582Z,100406.56
2022-08-07T16:31:51.688Z,100409.28
2022-08-07T16:34:42.085Z,100403.28
2022-08-07T16:38:06.805Z,100402.97
2022-08-07T16:41:04.244Z,100401.69
2022-08-07T16:44:53.687Z,100402.25
2022-08-07T16:47:12.065Z,100406.75
2022-08-07T16:50:20.855Z,100406.37
2022-08-07T16:52:55.852Z,100411.00
2022-08-07T16:55:47.088Z,100408.38
2022-08-07T16:58:30.169Z,100415.81
2022-08-07T17:01:15.956Z,100422.47
2022-08-07T17:04:00.412Z,100416.63
2022-08-07T17:07:02.811Z,100415.38
2022-08-07T17:10:07.008Z,100414.84
2022-08-07T17:12:53.219Z,100414.69
2022-08-07T17:15:50.742Z,100411.13
2022-08-07T17:18:30.174Z,100421.53
2022-08-07T17:20:58.942Z,100417.19
2022-08-07T17:23:32.577Z,100428.84
2022-08-07T17:26:31.316Z,100424.66
2022-08-07T17:30:12.715Z,100427.97
2022-08-07T17:32:30.371Z,100425.25
2022-08-07T17:35:51.396Z,100421.09
2022-08-07T17:38:33.455Z,100425.25
2022-08-07T17:42:02.968Z,100427.22
2022-08-07T17:44:41.598Z,100435.56
2022-08-07T17:47:16.831Z,100436.72
2022-08-07T17:50:01.215Z,100437.00
2022-08-07T17:52:35.234Z,100450.53
2022-08-07T17:55:55.875Z,100446.81
2022-08-07T17:58:13.823Z,100447.22
2022-08-07T18:00:59.835Z,100446.50
2022-08-07T18:04:07.031Z,100452.81
2022-08-07T18:06:39.044Z,100461.25
2022-08-07T18:09:16.100Z,100459.22
2022-08-07T18:12:17.962Z,100460.87
2022-08-07T18:14:46.465Z,100460.66
2022-08-07T18:18:44.853Z,100464.88
2022-08-07T18:21:12.716Z,100461.25
2022-08-07T18:23:43.384Z,100471.34
2022-08-07T18:26:20.187Z,100467.87
2022-08-07T18:30:06.734Z,100469.50
2022-08-07T18:33:10.602Z,100472.38
2022-08-07T18:35:50.270Z,100480.28
2022-08-07T18:38:55.628Z,100485.25
2022-08-07T18:41:53.290Z,100483.44
2022-08-07T18:45:39.943Z,100490.69
2022-08-07T18:48:01.135Z,100487.81
2022-08-07T18:50:47.102Z,100487.19
2022-08-07T18:53:39.323Z,100489.91
2022-08-07T18:56:35.661Z,100492.59
2022-08-07T18:59:46.943Z,100494.00
2022-08-07T19:02:59.162Z,100500.69
2022-08-07T19:06:03.693Z,100506.41
2022-08-07T19:08:34.303Z,100505.34
2022-08-07T19:11:35.654Z,100510.63
2022-08-07T19:14:22.494Z,100502.84
2022-08-07T19:17:04.733Z,100512.84
2022-08-07T19:19:37.879Z,100515.78
2022-08-07T19:22:31.984Z,100515.25
2022-08-07T19:25:06.256Z,100528.94
2022-08-07T19:28:57.868Z,100529.44
2022-08-07T19:30:59.992Z,100523.28
2022-08-07T19:33:16.187Z,100530.91
2022-08-07T19:35:51.973Z,100527.44
2022-08-07T19:38:20.571Z,100524.50
2022-08-07T19:40:52.041Z,100532.59
2022-08-07T19:43:45.704Z,100535.75
2022-08-07T19:46:12.181Z,100541.84
2022-08-07T19:48:53.938Z,100543.16
2022-08-07T19:51:50.873Z,100545.94
2022-08-07T19:54:31.100Z,100541.91
2022-08-07T19:58:00.974Z,100540.38
2022-08-07T19:59:54.584Z,100545.97
2022-08-07T20:02:39.006Z,100552.25
2022-08-07T20:05:10.025Z,100538.16
2022-08-07T20:07:47.320Z,100554.12
2022-08-07T20:10:37.041Z,100541.06
2022-08-07T20:13:15.763Z,100545.87
2022-08-07T20:15:54.049Z,100548.91
2022-08-07T20:18:32.927Z,100551.53
2022-08-07T20:21:03.146Z,100565.13
2022-08-07T20:23:42.974Z,100560.88
2022-08-07T20:26:15.305Z,100567.13
2022-08-07T20:28:59.830Z,100565.44
2022-08-07T20:31:29.101Z,100572.22
2022-08-07T20:34:01.013Z,100567.59
2022-08-07T20:36:30.435Z,100564.97
2022-08-07T20:39:00.460Z,100565.13
2022-08-07T20:41:40.695Z,100566.37
2022-08-07T20:44:10.470Z,100571.38
2022-08-07T20:46:43.714Z,100576.97
2022-08-07T20:50:01.030Z,100561.31
2022-08-07T20:52:07.838Z,100565.56
2022-08-07T20:54:53.695Z,100566.34
2022-08-07T20:57:36.581Z,100557.09
2022-08-07T21:00:09.386Z,100559.91
2022-08-07T21:02:58.113Z,100569.69
2022-08-07T21:05:56.142Z,100566.78
2022-08-07T21:08:38.122Z,100559.13
2022-08-07T21:11:10.890Z,100577.03
2022-08-07T21:13:56.991Z,100573.34
2022-08-07T21:16:33.664Z,100576.69
2022-08-07T21:19:01.545Z,100579.47
2022-08-07T21:21:33.199Z,100585.97
2022-08-07T21:24:49.455Z,100589.06
2022-08-07T21:27:25.631Z,100579.37
2022-08-07T21:30:08.984Z,100578.31
2022-08-07T21:32:48.811Z,100581.97
2022-08-07T21:35:34.817Z,100582.97
2022-08-07T21:38:30.406Z,100591.25
2022-08-07T21:41:10.862Z,100590.00
2022-08-07T21:44:28.469Z,100592.38
2022-08-07T21:47:34.694Z,100590.88
2022-08-07T21:50:14.755Z,100603.47
2022-08-07T21:53:18.517Z,100600.78
2022-08-07T21:55:52.106Z,100595.78
2022-08-07T21:58:32.917Z,100596.03
2022-08-07T22:01:13.743Z,100594.62
2022-08-07T22:03:46.695Z,100607.88
2022-08-07T22:06:52.747Z,100600.19
2022-08-07T22:09:25.786Z,100609.75
2022-08-07T22:12:05.544Z,100611.53
2022-08-07T22:16:42.806Z,100601.66
2022-08-07T22:18:02.005Z,100603.72
2022-08-07T22:20:49.256Z,100611.88
2022-08-07T22:23:40.238Z,100624.19
2022-08-07T22:26:19.115Z,100618.72
2022-08-07T22:28:53.175Z,100621.88
2022-08-07T22:32:03.348Z,100621.84
2022-08-07T22:34:53.752Z,100627.28
2022-08-07T22:38:04.459Z,100631.81
2022-08-07T22:40:42.575Z,100640.56
2022-08-07T22:43:13.837Z,100631.59
2022-08-07T22:46:46.898Z,100637.37
2022-08-07T22:49:37.788Z,100633.56
2022-08-07T22:52:45.930Z,100637.56
2022-08-07T22:55:46.587Z,100641.09
2022-08-07T22:58:47.444Z,100642.81
2022-08-07T23:01:26.245Z,100644.63
2022-08-07T23:04:01.895Z,100644.72
2022-08-07T23:06:55.237Z,100647.19
2022-08-07T23:10:06.250Z,100634.38
2022-08-07T23:12:35.016Z,100631.78
2022-08-07T23:16:06.133Z,100627.72
2022-08-07T23:19:13.698Z,100636.41
2022-08-07T23:21:59.416Z,100636.16
2022-08-07T23:24:45.386Z,100627.59
2022-08-07T23:27:18.665Z,100626.59
2022-08-07T23:30:39.591Z,100628.13
2022-08-07T23:34:36.141Z,100620.19
2022-08-07T23:36:36.754Z,100628.00
2022-08-07T23:39:36.007Z,100632.72
2022-08-07T23:42:08.184Z,100622.22
2022-08-07T23:44:52.394Z,100623.84
2022-08-07T23:47:46.465Z,100628.97
2022-08-07T23:50:28.797Z,100624.50
2022-08-07T23:53:16.613Z,100623.72
2022-08-07T23:56:02.221Z,100616.94
2022-08-07T23:58:43.865Z,100611.31
